createdAt,value
2023-04-03T00:02:13.216Z,98759.13
2023-04-03T00:07:16.115Z,98758.31
2023-04-03T00:12:18.780Z,98752.94
2023-04-03T00:17:21.739Z,98749.84
2023-04-03T00:22:24.812Z,98752.91
2023-04-03T00:27:27.543Z,98759.13
2023-04-03T00:32:30.204Z,98756.81
2023-04-03T00:37:33.418Z,98756.03
2023-04-03T00:42:37.058Z,98755.25
2023-04-03T00:47:42.006Z,98752.94
2023-04-03T00:52:47.483Z,98745.16
2023-04-03T00:57:50.640Z,98746.72
2023-04-03T01:02:53.947Z,98747.13
2023-04-03T01:07:57.948Z,98744.06
2023-04-03T01:13:02.292Z,98751.34
2023-04-03T01:18:05.899Z,98742.84
2023-04-03T01:23:11.218Z,98743.63
2023-04-03T01:28:20.418Z,98750.97
2023-04-03T01:33:23.060Z,98743.63
2023-04-03T01:38:26.622Z,98755.63
2023-04-03T01:43:29.306Z,98748.66
2023-04-03T01:48:31.929Z,98746.31
2023-04-03T01:53:34.732Z,98747.47
2023-04-03T01:58:37.475Z,98754.06
2023-04-03T02:03:40.731Z,98750.50
2023-04-03T02:08:43.305Z,98750.50
2023-04-03T02:13:45.895Z,98754.06
2023-04-03T02:18:48.568Z,98754.09
2023-04-03T02:23:51.269Z,98756.00
2023-04-03T02:28:55.362Z,98755.22
2023-04-03T02:33:57.938Z,98760.63
2023-04-03T02:39:00.665Z,98756.00
2023-04-03T02:44:05.076Z,98756.00
2023-04-03T02:49:08.647Z,98752.91
2023-04-03T02:54:11.829Z,98759.50
2023-04-03T02:59:18.498Z,98753.69
2023-04-03T03:04:21.421Z,98762.97
2023-04-03T03:09:24.184Z,98772.59
2023-04-03T03:14:26.674Z,98765.25
2023-04-03T03:19:29.234Z,98760.50
2023-04-03T03:24:31.810Z,98757.38
2023-04-03T03:29:34.368Z,98751.97
2023-04-03T03:34:37.938Z,98748.94
2023-04-03T03:39:42.038Z,98745.81
2023-04-03T03:44:44.618Z,98756.63
2023-04-03T03:49:47.296Z,98748.16
2023-04-03T03:54:51.131Z,98746.69
2023-04-03T03:59:53.965Z,98754.47
2023-04-03T04:04:57.267Z,98751.72
2023-04-03T04:10:00.208Z,98754.03
2023-04-03T04:15:03.933Z,98756.69
2023-04-03T04:20:07.001Z,98759.75
2023-04-03T04:25:11.137Z,98761.31
2023-04-03T04:30:16.536Z,98759.03
2023-04-03T04:35:21.707Z,98755.19
2023-04-03T04:40:27.910Z,98765.28
2023-04-03T04:45:30.726Z,98758.31
2023-04-03T04:50:33.555Z,98762.91
2023-04-03T04:55:36.343Z,98753.63
2023-04-03T05:00:39.972Z,98763.31
2023-04-03T05:05:42.883Z,98771.44
2023-04-03T05:10:47.199Z,98773.00
2023-04-03T05:15:50.594Z,98777.66
2023-04-03T05:20:53.320Z,98779.22
2023-04-03T05:25:56.782Z,98784.22
2023-04-03T05:31:00.516Z,98787.75
2023-04-03T05:36:10.017Z,98791.63
2023-04-03T05:41:19.032Z,98789.28
2023-04-03T05:46:23.391Z,98791.97
2023-04-03T05:51:34.841Z,98793.16
2023-04-03T05:56:43.535Z,98797.78
2023-04-03T06:01:47.339Z,98803.59
2023-04-03T06:06:55.852Z,98807.91
2023-04-03T06:12:01.883Z,98814.84
2023-04-03T06:17:06.071Z,98807.13
2023-04-03T06:22:08.879Z,98819.13
2023-04-03T06:27:12.612Z,98814.50
2023-04-03T06:32:16.174Z,98821.06
2023-04-03T06:37:20.960Z,98821.47
2023-04-03T06:42:23.935Z,98823.38
2023-04-03T06:47:35.954Z,98824.13
2023-04-03T06:52:38.776Z,98833.03
2023-04-03T06:57:41.728Z,98831.88
2023-04-03T07:02:44.441Z,98831.13
2023-04-03T07:07:47.074Z,98835.78
2023-04-03T07:12:49.898Z,98840.78
2023-04-03T07:17:52.465Z,98843.50
2023-04-03T07:22:55.102Z,98850.47
2023-04-03T07:27:58.072Z,98851.22
2023-04-03T07:33:00.642Z,98855.88
2023-04-03T07:38:03.304Z,98853.91
2023-04-03T07:43:07.132Z,98860.47
2023-04-03T07:48:10.452Z,98866.69
2023-04-03T07:53:13.138Z,98870.53
2023-04-03T07:58:22.018Z,98867.84
2023-04-03T08:03:25.043Z,98874.78
2023-04-03T08:08:30.897Z,98879.81
2023-04-03T08:13:36.882Z,98880.53
2023-04-03T08:18:40.386Z,98884.03
2023-04-03T08:23:43.471Z,98877.00
2023-04-03T08:28:49.563Z,98875.44
2023-04-03T08:33:52.444Z,98883.81
2023-04-03T08:39:04.880Z,98881.25
2023-04-03T08:44:30.661Z,98881.34
2023-04-03T08:50:10.700Z,98881.59
2023-04-03T08:55:27.084Z,98883.13
2023-04-03T09:00:54.276Z,98889.38
2023-04-03T09:06:34.148Z,98896.00
2023-04-03T09:12:10.752Z,98890.28
2023-04-03T09:17:37.791Z,98899.53
2023-04-03T09:22:52.269Z,98894.13
2023-04-03T09:27:59.067Z,98884.16
2023-04-03T09:33:03.016Z,98891.41
2023-04-03T09:38:17.861Z,98892.50
2023-04-03T09:43:28.565Z,98886.97
2023-04-03T09:48:33.701Z,98879.03
2023-04-03T09:53:44.944Z,98890.00
2023-04-03T09:58:52.378Z,98887.31
2023-04-03T10:04:19.037Z,98888.59
2023-04-03T10:09:34.325Z,98893.19
2023-04-03T10:14:55.896Z,98875.72
2023-04-03T10:20:30.794Z,98871.13
2023-04-03T10:25:52.743Z,98869.44
2023-04-03T10:31:14.860Z,98867.13
2023-04-03T10:36:40.458Z,98864.88
2023-04-03T10:42:17.240Z,98869.94
2023-04-03T10:47:34.149Z,98875.31
2023-04-03T10:52:56.554Z,98866.84
2023-04-03T10:58:01.087Z,98872.91
2023-04-03T11:03:19.310Z,98869.06
2023-04-03T11:08:32.489Z,98869.84
2023-04-03T11:13:41.482Z,98865.41
2023-04-03T11:19:01.156Z,98868.13
2023-04-03T11:24:09.107Z,98868.97
2023-04-03T11:29:34.264Z,98847.41
2023-04-03T11:34:44.400Z,98854.69
2023-04-03T11:39:56.124Z,98849.78
2023-04-03T11:45:52.507Z,98849.66
2023-04-03T11:50:57.999Z,98849.94
2023-04-03T11:56:01.924Z,98853.94
2023-04-03T12:01:10.979Z,98844.63
2023-04-03T12:06:17.891Z,98839.91
2023-04-03T12:11:31.559Z,98834.38
2023-04-03T12:16:40.828Z,98829.06
2023-04-03T12:21:53.329Z,98839.75
2023-04-03T12:27:01.800Z,98829.03
2023-04-03T12:32:25.476Z,98832.13
2023-04-03T12:37:36.901Z,98829.56
2023-04-03T12:42:58.208Z,98822.03
2023-04-03T12:48:05.906Z,98815.56
2023-04-03T12:53:18.395Z,98819.75
2023-04-03T12:58:27.549Z,98823.56
2023-04-03T13:03:31.045Z,98814.06
2023-04-03T13:08:33.972Z,98810.66
2023-04-03T13:13:36.927Z,98804.84
2023-04-03T13:18:40.098Z,98813.34
2023-04-03T13:23:47.953Z,98811.72
2023-04-03T13:28:52.641Z,98799.69
2023-04-03T13:34:04.360Z,98792.03
2023-04-03T13:39:12.063Z,98799.09
2023-04-03T13:44:17.583Z,98794.44
2023-04-03T13:49:33.416Z,98794.66
2023-04-03T13:54:40.876Z,98787.81
2023-04-03T13:59:44.528Z,98788.72
2023-04-03T14:04:47.095Z,98788.00
2023-04-03T14:09:49.909Z,98787.03
2023-04-03T14:14:52.776Z,98782.47
2023-04-03T14:19:57.702Z,98784.19
2023-04-03T14:25:00.477Z,98782.13
2023-04-03T14:30:05.183Z,98787.81
2023-04-03T14:35:08.311Z,98783.13
2023-04-03T14:40:14.538Z,98772.88
2023-04-03T14:45:19.633Z,98764.13
2023-04-03T14:50:25.619Z,98755.09
2023-04-03T14:55:29.038Z,98772.59
2023-04-03T15:00:31.731Z,98757.75
2023-04-03T15:05:38.649Z,98750.31
2023-04-03T15:10:41.536Z,98759.72
2023-04-03T15:15:44.586Z,98766.13
2023-04-03T15:20:48.569Z,98755.13
2023-04-03T15:25:51.319Z,98754.50
2023-04-03T15:30:54.093Z,98757.22
2023-04-03T15:36:06.508Z,98756.84
2023-04-03T15:41:10.319Z,98765.56
2023-04-03T15:46:14.660Z,98754.25
2023-04-03T15:51:17.348Z,98761.84
2023-04-03T15:56:19.846Z,98755.69
2023-04-03T16:01:22.582Z,98753.72
2023-04-03T16:06:26.575Z,98751.69
2023-04-03T16:11:29.718Z,98739.66
2023-04-03T16:16:36.701Z,98754.47
2023-04-03T16:21:39.670Z,98750.47
2023-04-03T16:26:42.462Z,98752.59
2023-04-03T16:31:45.260Z,98764.13
2023-04-03T16:36:48.055Z,98764.91
2023-04-03T16:41:51.176Z,98770.00
2023-04-03T16:46:53.944Z,98765.56
2023-04-03T16:51:56.788Z,98772.94
2023-04-03T16:56:59.654Z,98765.16
2023-04-03T17:02:02.271Z,98757.66
2023-04-03T17:07:07.257Z,98759.78
2023-04-03T17:12:10.036Z,98765.53
2023-04-03T17:17:13.043Z,98762.34
2023-04-03T17:22:17.684Z,98769.09
2023-04-03T17:27:20.224Z,98768.16
2023-04-03T17:32:23.002Z,98757.69
2023-04-03T17:37:25.714Z,98766.19
2023-04-03T17:42:31.486Z,98763.94
2023-04-03T17:47:34.327Z,98765.84
2023-04-03T17:52:37.019Z,98768.59
2023-04-03T17:57:40.152Z,98776.81
2023-04-03T18:02:43.579Z,98768.00
2023-04-03T18:07:46.500Z,98761.78
2023-04-03T18:12:49.150Z,98771.16
2023-04-03T18:17:56.741Z,98776.56
2023-04-03T18:23:00.364Z,98776.63
2023-04-03T18:28:06.595Z,98784.00
2023-04-03T18:33:09.284Z,98792.53
2023-04-03T18:38:12.123Z,98792.16
2023-04-03T18:43:15.668Z,98796.03
2023-04-03T18:48:18.609Z,98800.69
2023-04-03T18:53:21.829Z,98807.69
2023-04-03T18:58:24.437Z,98807.03
2023-04-03T19:03:28.005Z,98807.34
2023-04-03T19:08:31.027Z,98804.69
2023-04-03T19:13:34.451Z,98815.16
2023-04-03T19:18:38.216Z,98811.66
2023-04-03T19:23:43.036Z,98815.56
2023-04-03T19:28:49.029Z,98815.16
2023-04-03T19:33:52.050Z,98816.75
2023-04-03T19:38:54.703Z,98809.41
2023-04-03T19:43:57.680Z,98810.94
2023-04-03T19:49:00.505Z,98818.66
2023-04-03T19:54:03.309Z,98814.84
2023-04-03T19:59:06.450Z,98805.56
2023-04-03T20:04:09.687Z,98807.13
2023-04-03T20:09:12.695Z,98804.81
2023-04-03T20:14:16.848Z,98818.75
2023-04-03T20:19:19.699Z,98815.63
2023-04-03T20:24:22.445Z,98811.72
2023-04-03T20:29:25.969Z,98811.31
2023-04-03T20:34:28.519Z,98812.84
2023-04-03T20:39:31.568Z,98810.88
2023-04-03T20:44:34.190Z,98808.97
2023-04-03T20:49:37.813Z,98807.03
2023-04-03T20:54:41.250Z,98811.25
2023-04-03T20:59:44.053Z,98811.59
2023-04-03T21:04:56.288Z,98809.19
2023-04-03T21:10:36.165Z,98809.25
2023-04-03T21:15:55.167Z,98813.22
2023-04-03T21:20:57.785Z,98820.19
2023-04-03T21:26:01.601Z,98824.44
2023-04-03T21:31:04.152Z,98811.97
2023-04-03T21:36:07.852Z,98814.66
2023-04-03T21:41:10.633Z,98820.09
2023-04-03T21:46:13.895Z,98813.16
2023-04-03T21:51:19.508Z,98816.63
2023-04-03T21:56:22.950Z,98813.19
2023-04-03T22:01:25.722Z,98818.53
2023-04-03T22:06:28.943Z,98814.66
2023-04-03T22:11:31.453Z,98815.38
2023-04-03T22:16:33.964Z,98820.69
2023-04-03T22:21:36.633Z,98816.78
2023-04-03T22:26:44.492Z,98820.56
2023-04-03T22:31:47.114Z,98822.06
2023-04-03T22:36:49.610Z,98820.94
2023-04-03T22:41:52.759Z,98818.16
2023-04-03T22:46:55.315Z,98820.00
2023-04-03T22:51:57.889Z,98820.38
2023-04-03T22:57:00.419Z,98825.03
2023-04-03T23:02:03.404Z,98829.75
2023-04-03T23:07:05.975Z,98828.13
2023-04-03T23:12:10.133Z,98819.38
2023-04-03T23:17:12.986Z,98822.81
2023-04-03T23:22:15.926Z,98828.03
2023-04-03T23:27:18.641Z,98838.59
2023-04-03T23:32:21.404Z,98839.31
2023-04-03T23:37:23.918Z,98836.44
2023-04-03T23:42:26.388Z,98834.28
2023-04-03T23:47:28.996Z,98830.94
2023-04-03T23:52:31.646Z,98832.91
2023-04-03T23:57:34.153Z,98828.03
